Wykagyl, New York
Current Conditions -  °F | °C
As of 9:56 PM on Saturday 22 Nov 2014 (Local Time) from KHPN Reporting Station
Broken Clouds Broken Clouds  
Wind Chill:   Ceiling: 4000
Heat Index:   Visibility: 10mi
Dew Point: -9°   Wind: 6mph
Humidity: 35%   Direction: 240°WSW
Pressure: 30.18"   Gusts: NA
Location:  40.95°N, 73.79°W
Report Text: KHPN 230256Z 24005KT 10SM BKN040 BKN060 06/M09 A3018 RMK AO2 SLP225 T00561089 58014
Loading
Personal Weather Stations






























Interactive Weather Map New forecast layout! Learn more

10-Day Weather Forecast

Advertisements
Track Severe Weather on mobile